Lucena, Brazil
Current Conditions -  °F | °C
As of 10:00 AM on Tuesday 21 Oct 2014 (Local Time) from SBJP Reporting Station
Broken Clouds Broken Clouds  
Wind Chill: 84°   Ceiling: 3000
Heat Index: 86°   Visibility: 6mi
Dew Point: 66°   Wind: 12mph
Humidity: 55%   Direction: 80°E
Pressure: 29.97"   Gusts: NA
Location:  6.9°S, 34.87°W
Report Text: SBJP 211300Z 08010KT 030V110 9999 BKN030 29/19 Q1015
Loading
Personal Weather Stations






























Interactive Weather Map
Tropical Storm Tracking
New forecast layout! Learn more

10-Day Weather Forecast

Advertisements
Track Severe Weather on mobile